Terminal Aerodrome Forecast
Issued by NWS

Home | Current Version | Previous Version | Text Only | Print | Product List | Glossary On
Versions: 1 2 3 4 5 6 7 8 9 10 11 12 13 14 15 16 17 18 19
000
FTUS41 KPBZ 020200 AAA
TAFDUJ
TAF AMD
KDUJ 020215Z 0202/0224 25008KT 4SM BR OVC005
     FM020500 28008KT 4SM BR OVC008
     FM021500 28008KT P6SM OVC015
     FM022000 30007KT P6SM BKN025=

USA.gov is the U.S. government's official web portal to all federal, state and local government web resources and services.